Pagrindinis puslapis
METAR-TAF:

METAR-TAF

Oro uostai :

Akra, Gana

platuma: 05-36N, ilguma: 000-10W, Aukštis: 68 m

Dabartinis oras

Ataskaita buvo paskelbta 34 minutes, ne 21:00 UTC
Vėjas 7 kt iš Pietų
Temperatūra 28°C
Drėgmė 84%
Slėgis 1011 hPa
Matomumas 10 km arba daugiau
Mažai debesys ne aukštis 1800 ft

METAR: DGAA 102100Z 19007KT 9999 FEW018 28/25 Q1011 NOSIG

Laikas: 21:34 (21:34 UTC)

Prognozė

Ataskaita buvo paskelbta 4 valandos ir 34 minutes, ne 17:00 UTC
Prognozė galioja nuo 10 metu 18 UTC su 11 metu 24 UTC
Vėjas 8 kt iš Pietų
Matomumas 10 km arba daugiau
Mažai debesys ne aukštis 1500 ft
Tapsmas
nuo 11 metu 00 UTC su 11 metu 02 UTC
Vėjas 5 kt iš Vakarų
Tikimybė 30%
nuo 11 metu 06 UTC su 11 metu 09 UTC
Matomumas: 5000 m
rūkana
Laikinai
nuo 11 metu 15 UTC su 11 metu 19 UTC
Mažai debesys ne aukštis 3000 ft, Liūtiniai kamuoliniai debesys.

TAF: DGAA 101700Z 1018/1124 19008KT 9999 FEW015 BECMG 1100/1102 27005KT PROB30 1106/1109 5000 BR NSC TEMPO 1115/1119 FEW030CB

Orai ataskaitas ir orų prognozės (METAR, TAF).

turimą stotys yra geltonos ir raudonos taškus žemėlapyje.

Perkelti pele per norėdami pamatyti stoties vardą.

Tada spustelėkite, norėdami matyti oro stebėjimo ir prognozės.

Norėdami pakeisti žemėlapį: spustelėkite ant žalios mygtukų su juodo kryžiaus žemyn,; žalią mygtuką su brūkšneliu, jei norite nutolinti; arba žalių rodyklių gretimoms žemėlapius.


METAR-TAF: